createdAt,value
2019-05-20T00:03:44.985Z,49.20
2019-05-20T00:08:48.673Z,49.08
2019-05-20T00:13:52.228Z,49.00
2019-05-20T00:18:55.810Z,48.60
2019-05-20T00:23:59.423Z,49.16
2019-05-20T00:29:03.130Z,49.13
2019-05-20T00:34:06.690Z,49.20
2019-05-20T00:39:20.156Z,49.18
2019-05-20T00:44:23.862Z,48.55
2019-05-20T00:49:27.443Z,48.95
2019-05-20T00:54:31.000Z,49.73
2019-05-20T00:59:34.602Z,48.92
2019-05-20T01:04:38.286Z,49.30
2019-05-20T01:09:41.941Z,49.40
2019-05-20T01:14:45.514Z,49.33
2019-05-20T01:19:49.179Z,49.67
2019-05-20T01:24:52.731Z,50.03
2019-05-20T01:29:56.390Z,50.30
2019-05-20T01:34:59.992Z,49.70
2019-05-20T01:40:04.403Z,49.77
2019-05-20T01:45:09.638Z,49.80
2019-05-20T01:50:13.563Z,49.77
2019-05-20T01:55:17.292Z,49.67
2019-05-20T02:00:21.735Z,49.53
2019-05-20T02:05:25.767Z,50.37
2019-05-20T02:10:29.715Z,49.80
2019-05-20T02:15:35.016Z,50.13
2019-05-20T02:20:39.038Z,50.90
2019-05-20T02:25:46.666Z,50.50
2019-05-20T02:30:50.837Z,49.95
2019-05-20T02:35:54.481Z,49.63
2019-05-20T02:40:59.091Z,49.90
2019-05-20T02:46:02.859Z,48.73
2019-05-20T02:51:06.459Z,49.10
2019-05-20T02:56:10.111Z,48.80
2019-05-20T03:01:13.723Z,49.80
2019-05-20T03:06:17.452Z,49.90
2019-05-20T03:11:21.123Z,49.33
2019-05-20T03:16:24.774Z,49.00
2019-05-20T03:21:28.356Z,49.33
2019-05-20T03:26:32.002Z,49.10
2019-05-20T03:31:35.685Z,48.73
2019-05-20T03:36:39.238Z,49.40
2019-05-20T03:41:42.837Z,49.13
2019-05-20T03:46:46.441Z,49.90
2019-05-20T03:51:52.458Z,50.10
2019-05-20T03:56:55.359Z,50.03
2019-05-20T04:01:58.950Z,53.17
2019-05-20T04:07:02.516Z,52.50
2019-05-20T04:12:06.257Z,53.20
2019-05-20T04:17:09.848Z,51.10
2019-05-20T04:22:13.398Z,51.87
2019-05-20T04:27:16.969Z,52.57
2019-05-20T04:32:20.655Z,51.53
2019-05-20T04:37:24.247Z,50.52
2019-05-20T04:42:27.814Z,51.08
2019-05-20T04:47:31.468Z,52.43
2019-05-20T04:52:35.073Z,59.45
2019-05-20T04:57:38.672Z,56.48
2019-05-20T05:02:43.662Z,54.53
2019-05-20T05:07:47.753Z,52.78
2019-05-20T05:12:51.370Z,53.75
2019-05-20T05:17:55.178Z,53.68
2019-05-20T05:22:58.915Z,52.95
2019-05-20T05:28:02.608Z,53.05
2019-05-20T05:33:06.267Z,53.45
2019-05-20T05:38:10.021Z,53.35
2019-05-20T05:43:13.575Z,52.67
2019-05-20T05:48:17.254Z,53.38
2019-05-20T05:53:20.983Z,52.98
2019-05-20T05:58:24.666Z,65.25
2019-05-20T06:03:28.340Z,52.95
2019-05-20T06:08:32.006Z,52.53
2019-05-20T06:13:35.601Z,53.10
2019-05-20T06:18:39.267Z,53.23
2019-05-20T06:23:42.887Z,52.98
2019-05-20T06:28:46.539Z,52.40
2019-05-20T06:33:50.290Z,52.23
2019-05-20T06:39:13.791Z,54.27
2019-05-20T06:44:17.640Z,52.93
2019-05-20T06:49:21.240Z,54.90
2019-05-20T06:54:24.798Z,62.33
2019-05-20T06:59:28.383Z,53.83
2019-05-20T07:04:32.810Z,52.27
2019-05-20T07:09:36.419Z,52.33
2019-05-20T07:14:40.127Z,53.10
2019-05-20T07:19:43.723Z,52.58
2019-05-20T07:24:47.325Z,50.95
2019-05-20T07:29:50.987Z,52.55
2019-05-20T07:34:54.660Z,51.90
2019-05-20T07:39:58.302Z,53.05
2019-05-20T07:45:02.194Z,86.67
2019-05-20T07:50:08.118Z,52.98
2019-05-20T07:55:12.210Z,53.55
2019-05-20T08:00:16.103Z,54.53
2019-05-20T08:05:19.830Z,56.23
2019-05-20T08:10:23.734Z,56.15
2019-05-20T08:15:27.478Z,56.35
2019-05-20T08:20:31.246Z,56.60
2019-05-20T08:25:35.126Z,57.03
2019-05-20T08:30:39.552Z,56.37
2019-05-20T08:35:43.219Z,56.20
2019-05-20T08:40:48.771Z,55.83
2019-05-20T08:45:52.857Z,57.10
2019-05-20T08:50:57.606Z,54.88
2019-05-20T08:56:01.157Z,56.25
2019-05-20T09:01:04.945Z,57.78
2019-05-20T09:06:08.796Z,60.03
2019-05-20T09:11:12.425Z,62.35
2019-05-20T09:16:16.014Z,56.83
2019-05-20T09:21:19.761Z,55.30
2019-05-20T09:26:23.428Z,55.10
2019-05-20T09:31:27.361Z,57.60
2019-05-20T09:36:31.035Z,56.05
2019-05-20T09:41:34.668Z,54.58
2019-05-20T09:46:38.300Z,53.75
2019-05-20T09:51:41.894Z,53.50
2019-05-20T09:56:45.480Z,52.25
2019-05-20T10:01:50.007Z,53.28
2019-05-20T10:06:54.024Z,57.08
2019-05-20T10:11:57.586Z,52.30
2019-05-20T10:17:01.520Z,51.20
2019-05-20T10:22:05.570Z,53.42
2019-05-20T10:27:09.211Z,53.73
2019-05-20T10:32:12.778Z,54.00
2019-05-20T10:37:16.387Z,54.63
2019-05-20T10:42:20.181Z,54.25
2019-05-20T10:47:24.033Z,49.65
2019-05-20T10:52:27.607Z,48.50
2019-05-20T10:57:31.351Z,47.80
2019-05-20T11:02:35.094Z,47.30
2019-05-20T11:07:38.844Z,47.60
2019-05-20T11:12:42.387Z,45.85
2019-05-20T11:17:46.058Z,45.88
2019-05-20T11:22:49.709Z,45.33
2019-05-20T11:27:53.250Z,45.50
2019-05-20T11:32:56.937Z,45.45
2019-05-20T11:38:00.533Z,45.43
2019-05-20T11:43:04.190Z,45.60
2019-05-20T11:48:07.879Z,46.18
2019-05-20T11:53:11.510Z,47.65
2019-05-20T11:58:16.532Z,45.65
2019-05-20T12:03:20.393Z,46.88
2019-05-20T12:08:24.037Z,46.35
2019-05-20T12:13:28.433Z,46.02
2019-05-20T12:18:32.044Z,46.73
2019-05-20T12:23:35.607Z,46.98
2019-05-20T12:28:39.278Z,46.70
2019-05-20T12:33:42.867Z,47.03
2019-05-20T12:38:46.498Z,46.68
2019-05-20T12:44:09.549Z,46.90
2019-05-20T12:48:55.729Z,47.08
2019-05-20T12:53:59.251Z,46.85
2019-05-20T12:59:03.059Z,46.88
2019-05-20T13:04:07.069Z,47.23
2019-05-20T13:09:10.736Z,46.20
2019-05-20T13:14:14.338Z,46.25
2019-05-20T13:19:17.997Z,45.65
2019-05-20T13:24:21.655Z,45.67
2019-05-20T13:29:25.346Z,46.68
2019-05-20T13:34:28.946Z,46.65
2019-05-20T13:39:32.566Z,46.45
2019-05-20T13:44:36.137Z,47.03
2019-05-20T13:49:39.709Z,47.30
2019-05-20T13:54:43.481Z,48.02
2019-05-20T13:59:47.219Z,47.58
2019-05-20T14:04:50.931Z,47.48
2019-05-20T14:09:54.696Z,47.93
2019-05-20T14:14:58.280Z,47.88
2019-05-20T14:20:01.942Z,47.35
2019-05-20T14:25:07.718Z,47.67
2019-05-20T14:30:12.783Z,47.34
2019-05-20T14:35:16.514Z,47.50
2019-05-20T14:40:20.362Z,47.33
2019-05-20T14:45:23.965Z,47.78
2019-05-20T14:50:27.569Z,47.78
2019-05-20T14:55:41.483Z,47.45
2019-05-20T15:00:37.221Z,48.58
2019-05-20T15:05:41.081Z,47.93
2019-05-20T15:10:44.829Z,47.45
2019-05-20T15:15:48.786Z,47.60
2019-05-20T15:20:53.332Z,47.90
2019-05-20T15:25:57.202Z,47.58
2019-05-20T15:31:00.759Z,47.50
2019-05-20T15:36:04.712Z,47.73
2019-05-20T15:41:08.315Z,46.83
2019-05-20T15:46:11.978Z,47.38
2019-05-20T15:51:15.765Z,47.75
2019-05-20T15:56:19.535Z,47.98
2019-05-20T16:01:23.212Z,48.60
2019-05-20T16:06:26.816Z,48.17
2019-05-20T16:11:30.559Z,47.83
2019-05-20T16:16:34.129Z,47.67
2019-05-20T16:21:37.849Z,47.67
2019-05-20T16:26:41.518Z,47.93
2019-05-20T16:31:45.380Z,48.08
2019-05-20T16:36:49.152Z,49.73
2019-05-20T16:41:52.854Z,48.92
2019-05-20T16:46:56.604Z,48.95
2019-05-20T16:52:00.277Z,49.75
2019-05-20T16:57:03.951Z,49.20
2019-05-20T17:02:07.674Z,48.52
2019-05-20T17:07:11.414Z,48.50
2019-05-20T17:12:15.064Z,48.60
2019-05-20T17:17:18.736Z,48.15
2019-05-20T17:22:22.363Z,49.48
2019-05-20T17:27:27.182Z,48.65
2019-05-20T17:32:30.733Z,50.10
2019-05-20T17:37:34.396Z,49.00
2019-05-20T17:42:38.282Z,48.63
2019-05-20T17:47:41.955Z,48.92
2019-05-20T17:52:48.141Z,48.68
2019-05-20T17:57:51.851Z,50.80
2019-05-20T18:02:55.514Z,51.90
2019-05-20T18:07:59.192Z,48.95
2019-05-20T18:13:02.835Z,49.33
2019-05-20T18:18:06.664Z,49.65
2019-05-20T18:23:10.231Z,49.50
2019-05-20T18:28:13.925Z,49.48
2019-05-20T18:33:17.858Z,48.38
2019-05-20T18:38:21.594Z,49.00
2019-05-20T18:43:25.240Z,48.44
2019-05-20T18:48:28.910Z,49.42
2019-05-20T18:53:32.463Z,50.00
2019-05-20T18:58:36.146Z,49.93
2019-05-20T19:03:39.999Z,49.80
2019-05-20T19:08:43.758Z,48.75
2019-05-20T19:13:47.347Z,48.58
2019-05-20T19:18:51.218Z,49.75
2019-05-20T19:23:55.166Z,48.87
2019-05-20T19:28:58.962Z,47.83
2019-05-20T19:34:02.679Z,48.68
2019-05-20T19:39:07.815Z,48.90
2019-05-20T19:44:13.497Z,49.35
2019-05-20T19:49:18.575Z,49.18
2019-05-20T19:54:22.275Z,48.80
2019-05-20T19:59:26.002Z,48.83
2019-05-20T20:04:29.557Z,48.92
2019-05-20T20:09:33.270Z,48.55
2019-05-20T20:14:36.862Z,49.05
2019-05-20T20:19:40.607Z,49.77
2019-05-20T20:24:44.257Z,49.90
2019-05-20T20:29:47.845Z,48.58
2019-05-20T20:34:51.502Z,47.53
2019-05-20T20:39:55.066Z,47.85
2019-05-20T20:44:58.878Z,47.60
2019-05-20T20:50:04.291Z,47.27
2019-05-20T20:55:08.409Z,47.13
2019-05-20T21:00:12.602Z,47.73
2019-05-20T21:05:16.306Z,47.97
2019-05-20T21:10:20.027Z,47.75
2019-05-20T21:15:23.687Z,48.17
2019-05-20T21:20:27.691Z,47.75
2019-05-20T21:25:31.291Z,47.73
2019-05-20T21:30:34.953Z,47.45
2019-05-20T21:35:38.571Z,47.40
2019-05-20T21:40:42.162Z,47.33
2019-05-20T21:45:45.759Z,46.83
2019-05-20T21:50:49.342Z,46.75
2019-05-20T21:55:52.990Z,46.53
2019-05-20T22:00:57.508Z,46.75
2019-05-20T22:06:01.159Z,46.33
2019-05-20T22:11:04.818Z,46.35
2019-05-20T22:16:08.454Z,47.00
2019-05-20T22:21:13.842Z,46.57
2019-05-20T22:26:17.415Z,46.73
2019-05-20T22:31:21.139Z,46.87
2019-05-20T22:36:24.853Z,46.25
2019-05-20T22:41:28.817Z,46.58
2019-05-20T22:46:32.479Z,48.10
2019-05-20T22:51:36.283Z,46.23
2019-05-20T22:56:39.898Z,46.10
2019-05-20T23:01:43.446Z,46.20
2019-05-20T23:06:46.966Z,46.42
2019-05-20T23:11:50.626Z,46.50
2019-05-20T23:16:54.382Z,46.20
2019-05-20T23:21:57.996Z,46.13
2019-05-20T23:27:01.589Z,46.15
2019-05-20T23:32:05.142Z,63.73
2019-05-20T23:37:08.742Z,45.83
2019-05-20T23:42:12.347Z,46.08
2019-05-20T23:47:16.012Z,46.90
2019-05-20T23:52:19.630Z,46.33
2019-05-20T23:57:23.415Z,46.08
